Time;durP1;ratioP1;P1;durP2;ratioP2;P2;SDS_P1;SDS_P2;PMS_P1;PMS_P2;Temp;Humidity;BMP_temperature;BMP_pressure;BME280_temperature;BME280_humidity;BME280_pressure;Samples;Min_cycle;Max_cycle;Signal;HPM_P1;HPM_P2
2021/10/21 00:01:42;;;;;;;11.25;8.05;;;;;;;9.27;85.70;100116.47;6267340;28;20123;-72
2021/10/21 00:04:43;;;;;;;14.75;8.60;;;;;;;9.18;86.10;100114.38;6295577;28;20052;-72
2021/10/21 00:07:44;;;;;;;16.80;8.23;;;;;;;9.16;86.19;100110.16;6287354;28;20064;-72
2021/10/21 00:10:46;;;;;;;13.35;8.48;;;;;;;9.14;86.63;100110.25;6275224;28;20423;-72
2021/10/21 00:13:47;;;;;;;11.43;7.65;;;;;;;9.17;86.57;100109.25;6275496;28;20056;-72
2021/10/21 00:16:49;;;;;;;12.98;8.10;;;;;;;9.17;87.15;100110.06;6289485;28;20048;-72
2021/10/21 00:19:49;;;;;;;12.27;7.82;;;;;;;9.17;86.81;100109.25;6283544;28;20041;-72
2021/10/21 00:22:50;;;;;;;15.35;7.72;;;;;;;9.14;86.68;100102.44;6283323;28;20115;-72
2021/10/21 00:25:51;;;;;;;10.75;7.88;;;;;;;9.15;86.39;100098.91;6299520;28;20070;-72
2021/10/21 00:28:51;;;;;;;12.05;7.43;;;;;;;9.19;86.38;100092.59;6282437;28;20076;-73
2021/10/21 00:31:52;;;;;;;11.50;7.78;;;;;;;9.09;86.63;100091.44;6282923;28;20047;-73
2021/10/21 00:34:53;;;;;;;14.10;8.00;;;;;;;9.13;86.77;100089.50;6301006;28;20040;-72
2021/10/21 00:37:54;;;;;;;11.20;7.55;;;;;;;9.07;87.51;100080.25;6300973;28;20048;-72
2021/10/21 00:40:54;;;;;;;9.70;7.43;;;;;;;9.08;87.26;100081.97;6283109;28;20045;-73
2021/10/21 00:44:08;;;;;;;10.90;7.20;;;;;;;9.04;87.57;100085.66;6299784;28;20063;-73
2021/10/21 00:47:09;;;;;;;10.30;6.95;;;;;;;9.10;87.53;100081.84;6316434;28;20063;-72
2021/10/21 00:50:10;;;;;;;12.95;8.20;;;;;;;9.10;87.39;100092.25;6300658;28;20518;-72
2021/10/21 00:53:11;;;;;;;12.48;7.75;;;;;;;8.99;88.16;100072.84;6300697;28;20040;-72
2021/10/21 00:56:13;;;;;;;12.52;7.90;;;;;;;8.99;88.16;100075.47;6282797;28;20045;-72
2021/10/21 00:59:15;;;;;;;12.07;7.57;;;;;;;8.93;88.56;100072.34;6299160;28;20371;-73
2021/10/21 01:02:16;;;;;;;12.23;7.57;;;;;;;8.85;89.91;100072.75;6299209;28;20079;-73
2021/10/21 01:05:17;;;;;;;10.32;7.55;;;;;;;9.01;88.72;100078.81;6299211;28;20049;-72
2021/10/21 01:08:18;;;;;;;13.73;8.20;;;;;;;9.00;88.65;100082.38;6298886;28;20102;-72
2021/10/21 01:11:19;;;;;;;16.17;8.63;;;;;;;8.92;88.82;100074.13;6282590;28;20491;-73
2021/10/21 01:14:20;;;;;;;12.43;8.30;;;;;;;8.86;89.71;100066.66;6282675;28;20037;-72
2021/10/21 01:17:22;;;;;;;11.98;8.30;;;;;;;8.87;89.14;100071.78;6282520;28;20075;-72
2021/10/21 01:20:26;;;;;;;12.77;8.73;;;;;;;8.84;89.45;100066.72;6281769;28;20044;-72
2021/10/21 01:23:27;;;;;;;11.77;7.43;;;;;;;8.84;89.54;100064.13;6298824;28;20044;-72
2021/10/21 01:26:28;;;;;;;14.38;7.72;;;;;;;8.82;89.98;100055.56;6298529;28;20052;-72
2021/10/21 01:29:29;;;;;;;11.65;7.53;;;;;;;8.65;91.14;100046.06;6299728;28;20068;-73
2021/10/21 01:32:34;;;;;;;11.77;8.20;;;;;;;8.67;91.85;100046.81;6282030;28;20044;-72
2021/10/21 01:35:37;;;;;;;11.98;7.68;;;;;;;8.59;92.01;100032.56;6298661;28;20379;-72
2021/10/21 01:38:37;;;;;;;13.20;8.15;;;;;;;8.53;93.51;100033.72;6299677;28;20058;-72
2021/10/21 01:41:39;;;;;;;10.18;7.22;;;;;;;8.45;93.73;100017.66;6299529;28;20048;-72
2021/10/21 01:44:41;;;;;;;13.35;8.13;;;;;;;8.35;94.30;100004.28;6298297;28;20048;-72
2021/10/21 01:47:42;;;;;;;11.50;7.60;;;;;;;8.30;94.61;100008.88;6297745;28;20049;-72
2021/10/21 01:50:42;;;;;;;10.57;7.30;;;;;;;8.35;94.39;100000.84;6298017;28;20037;-72
2021/10/21 01:53:43;;;;;;;15.10;7.93;;;;;;;8.40;93.87;100004.03;6299418;28;20051;-72
2021/10/21 01:56:45;;;;;;;10.60;7.55;;;;;;;8.38;94.62;100003.25;6299255;28;20051;-72
2021/10/21 01:59:45;;;;;;;16.17;8.30;;;;;;;8.39;94.14;99999.75;6297823;28;20040;-72
2021/10/21 02:02:46;;;;;;;13.52;8.30;;;;;;;8.44;93.35;99996.03;6297847;28;20346;-72
2021/10/21 02:05:47;;;;;;;10.73;7.93;;;;;;;8.46;93.58;99999.38;6297785;28;20094;-72
2021/10/21 02:08:48;;;;;;;13.80;8.18;;;;;;;8.51;92.81;99999.13;6278569;28;20045;-72
2021/10/21 02:11:49;;;;;;;12.13;7.45;;;;;;;8.45;93.49;99997.69;6255945;28;20047;-72
2021/10/21 02:14:50;;;;;;;17.40;7.63;;;;;;;8.47;93.29;99995.03;6256114;28;20041;-72
2021/10/21 02:17:50;;;;;;;10.80;7.80;;;;;;;8.53;92.68;100006.88;6239704;28;20044;-72
2021/10/21 02:20:51;;;;;;;12.82;7.88;;;;;;;8.47;93.00;99998.47;6273598;28;20045;-72
2021/10/21 02:23:52;;;;;;;10.00;6.75;;;;;;;8.49;92.89;99992.34;6272456;28;20048;-72
2021/10/21 02:26:52;;;;;;;13.23;7.93;;;;;;;8.50;92.92;99999.22;6255662;28;20392;-72
2021/10/21 02:29:53;;;;;;;10.82;7.65;;;;;;;8.46;92.66;99983.78;6255733;28;20097;-72
2021/10/21 02:32:54;;;;;;;12.77;7.47;;;;;;;8.46;93.19;99982.94;6272540;28;20041;-72
2021/10/21 02:35:55;;;;;;;12.48;7.47;;;;;;;8.45;93.75;99979.50;6272356;28;20056;-72
2021/10/21 02:38:55;;;;;;;14.13;8.50;;;;;;;8.44;93.46;99975.22;6273459;28;20049;-72
2021/10/21 02:41:56;;;;;;;12.55;7.20;;;;;;;8.44;93.20;99970.03;6273085;28;20045;-72
2021/10/21 02:44:57;;;;;;;12.23;8.15;;;;;;;8.44;93.54;99975.22;6273109;28;20460;-72
2021/10/21 02:47:58;;;;;;;12.02;7.88;;;;;;;8.49;92.65;99966.34;6270978;28;20053;-72
2021/10/21 02:50:59;;;;;;;17.50;7.80;;;;;;;8.49;92.70;99964.56;6272325;28;20068;-72
2021/10/21 02:54:00;;;;;;;13.73;8.23;;;;;;;8.51;93.17;99967.94;6271212;28;20059;-73
2021/10/21 02:57:00;;;;;;;23.80;9.23;;;;;;;8.47;93.46;99962.06;6273002;28;20128;-73
2021/10/21 03:00:04;;;;;;;11.95;7.05;;;;;;;8.59;92.51;99957.13;6238804;28;20115;-73
2021/10/21 03:03:05;;;;;;;12.82;8.43;;;;;;;8.50;94.17;99949.81;6271541;28;20045;-72
2021/10/21 03:06:05;;;;;;;13.75;8.45;;;;;;;8.43;93.84;99947.53;6271442;28;20044;-73
2021/10/21 03:09:06;;;;;;;13.13;8.20;;;;;;;8.52;93.36;99943.59;6272503;28;20045;-72
2021/10/21 03:12:07;;;;;;;12.27;8.48;;;;;;;8.54;94.06;99939.16;6272605;28;20715;-72
2021/10/21 03:15:08;;;;;;;16.15;8.18;;;;;;;9.37;86.68;99929.31;6272556;28;20041;-75
2021/10/21 03:18:09;;;;;;;13.80;8.02;;;;;;;8.90;89.92;99932.84;6271397;28;20051;-75
2021/10/21 03:21:10;;;;;;;14.05;8.48;;;;;;;9.78;83.33;99925.19;6272384;28;20037;-75
2021/10/21 03:24:10;;;;;;;13.73;8.02;;;;;;;9.88;82.33;99914.13;6272433;28;20049;-75
2021/10/21 03:27:11;;;;;;;14.02;9.10;;;;;;;10.14;81.12;99916.09;6254568;28;20376;-76
2021/10/21 03:30:12;;;;;;;12.30;8.02;;;;;;;10.05;80.49;99905.28;6271180;28;20154;-75
2021/10/21 03:33:13;;;;;;;13.57;8.50;;;;;;;10.14;80.71;99906.50;6271088;28;20128;-75
2021/10/21 03:36:14;;;;;;;15.10;9.02;;;;;;;10.33;79.48;99906.22;6271004;28;20045;-75
2021/10/21 03:39:15;;;;;;;14.88;9.20;;;;;;;10.30;80.16;99898.59;6254557;28;20476;-75
2021/10/21 03:42:21;;;;;;;11.80;8.23;;;;;;;10.36;79.30;99897.38;6254099;28;20098;-75
2021/10/21 03:45:22;;;;;;;12.43;8.40;;;;;;;10.39;79.26;99898.00;6271066;28;20041;-75
2021/10/21 03:48:23;;;;;;;13.60;8.50;;;;;;;10.49;78.98;99886.06;6270477;28;20415;-75
2021/10/21 03:51:23;;;;;;;14.70;8.35;;;;;;;10.32;80.04;99885.47;6272050;28;20542;-75
2021/10/21 03:54:24;;;;;;;14.43;9.05;;;;;;;10.43;79.26;99880.41;6271985;28;20072;-75
2021/10/21 03:57:25;;;;;;;12.32;8.23;;;;;;;10.35;79.92;99875.66;6254329;28;20045;-75
2021/10/21 04:00:26;;;;;;;11.85;7.43;;;;;;;10.45;78.96;99862.88;6272008;28;20044;-75
2021/10/21 04:03:26;;;;;;;11.65;8.55;;;;;;;10.37;79.95;99871.19;6271749;28;20132;-75
2021/10/21 04:06:28;;;;;;;14.45;9.07;;;;;;;10.38;80.26;99872.03;6270744;28;20037;-75
2021/10/21 04:09:28;;;;;;;14.32;8.20;;;;;;;10.31;80.63;99868.97;6270561;28;20045;-75
2021/10/21 04:12:31;;;;;;;11.90;8.35;;;;;;;10.34;80.52;99867.94;6287178;28;20033;-75
2021/10/21 04:15:31;;;;;;;;;;;;;;;10.47;79.60;99863.63;6272022;28;20080;-75
2021/10/21 04:18:32;;;;;;;12.38;8.10;;;;;;;10.32;80.11;99864.59;6271842;28;20359;-75
2021/10/21 04:21:32;;;;;;;16.15;9.68;;;;;;;10.36;80.30;99861.69;6271523;28;20461;-75
2021/10/21 04:24:33;;;;;;;16.63;10.07;;;;;;;10.30;80.85;99850.81;6237558;28;20048;-75
2021/10/21 04:27:34;;;;;;;16.02;9.02;;;;;;;10.29;80.58;99855.16;6253829;28;20037;-75
2021/10/21 04:30:35;;;;;;;14.50;9.43;;;;;;;10.27;81.26;99849.19;6255851;28;20052;-75
2021/10/21 04:33:35;;;;;;;13.85;8.45;;;;;;;10.11;81.76;99845.88;6269357;28;20041;-74
2021/10/21 04:36:36;;;;;;;12.60;8.38;;;;;;;10.26;81.39;99848.34;6270525;28;20048;-75
2021/10/21 04:39:37;;;;;;;22.95;9.88;;;;;;;10.17;82.15;99843.75;6269372;28;20095;-75
2021/10/21 04:42:38;;;;;;;17.45;9.07;;;;;;;10.03;82.91;99836.78;6240747;28;20056;-75
2021/10/21 04:45:38;;;;;;;13.50;8.77;;;;;;;10.24;82.41;99829.38;6294183;28;20050;-75
2021/10/21 04:48:39;;;;;;;14.98;9.40;;;;;;;10.17;81.92;99833.31;6293834;28;20049;-75
2021/10/21 04:51:40;;;;;;;14.95;9.13;;;;;;;10.21;82.28;99820.91;6280488;28;20045;-75
2021/10/21 04:54:42;;;;;;;15.02;9.07;;;;;;;10.15;82.35;99816.94;6270064;28;20395;-75
2021/10/21 04:57:42;;;;;;;20.48;9.98;;;;;;;10.18;82.90;99824.53;6274847;28;20495;-75
2021/10/21 05:00:43;;;;;;;13.43;9.57;;;;;;;10.38;81.48;99806.84;6273692;28;20041;-75
2021/10/21 05:03:44;;;;;;;13.70;9.45;;;;;;;10.30;81.85;99803.88;6272601;28;20044;-75
2021/10/21 05:06:45;;;;;;;14.00;10.05;;;;;;;10.21;82.78;99803.50;6281708;28;20040;-75
2021/10/21 05:09:45;;;;;;;16.83;9.98;;;;;;;10.38;81.75;99796.41;6298166;28;20036;-75
2021/10/21 05:12:46;;;;;;;23.92;11.05;;;;;;;10.26;82.71;99792.78;6298026;28;20119;-75
2021/10/21 05:15:47;;;;;;;20.75;12.20;;;;;;;10.18;83.88;99795.03;6299341;28;20049;-75
2021/10/21 05:18:48;;;;;;;18.77;11.85;;;;;;;10.40;81.60;99791.94;6299237;28;20633;-75
2021/10/21 05:21:48;;;;;;;17.70;10.07;;;;;;;10.21;83.23;99795.69;6299170;28;20097;-75
2021/10/21 05:24:49;;;;;;;17.33;9.88;;;;;;;10.45;82.31;99798.50;6281030;28;20094;-75
2021/10/21 05:27:50;;;;;;;16.90;11.27;;;;;;;10.31;83.57;99793.31;6299459;28;20044;-75
2021/10/21 05:30:51;;;;;;;18.33;11.88;;;;;;;10.41;83.19;99791.81;6294432;28;20090;-75
2021/10/21 05:33:51;;;;;;;18.10;11.93;;;;;;;10.59;81.94;99788.97;6297630;28;20487;-75
2021/10/21 05:36:52;;;;;;;17.73;11.93;;;;;;;10.46;83.19;99791.53;6289775;28;20041;-76
2021/10/21 05:39:56;;;;;;;26.02;11.48;;;;;;;10.36;83.26;99790.44;6256211;28;20337;-75
2021/10/21 05:42:56;;;;;;;18.40;12.25;;;;;;;10.68;81.93;99797.00;6272462;28;20111;-75
2021/10/21 05:45:57;;;;;;;16.92;11.63;;;;;;;10.50;83.40;99793.00;6292177;28;20479;-75
2021/10/21 05:48:58;;;;;;;17.17;11.85;;;;;;;10.51;83.59;99794.66;6298118;28;20053;-75
2021/10/21 05:51:59;;;;;;;18.60;11.90;;;;;;;10.52;84.08;99787.66;6277127;28;20045;-76
2021/10/21 05:55:00;;;;;;;19.42;11.38;;;;;;;10.63;83.06;99795.66;6272411;28;20063;-75
2021/10/21 05:58:01;;;;;;;16.08;10.95;;;;;;;10.71;83.06;99792.50;6257833;28;20049;-75
2021/10/21 06:01:02;;;;;;;18.02;11.40;;;;;;;10.72;83.21;99795.03;6280178;28;20044;-75
2021/10/21 06:04:03;;;;;;;17.60;11.20;;;;;;;10.91;82.25;99783.38;6255564;28;20045;-75
2021/10/21 06:07:04;;;;;;;17.30;11.77;;;;;;;10.93;82.07;99787.53;6272199;28;20082;-76
2021/10/21 06:10:05;;;;;;;23.13;14.80;;;;;;;11.15;81.16;99791.34;6277176;28;20037;-75
2021/10/21 06:13:06;;;;;;;22.60;11.82;;;;;;;11.17;80.80;99785.06;6283350;28;20507;-75
2021/10/21 06:16:07;;;;;;;19.88;12.55;;;;;;;11.33;80.40;99797.09;6255365;28;20052;-75
2021/10/21 06:19:08;;;;;;;18.35;9.75;;;;;;;11.42;79.13;99789.44;6271865;28;20048;-75
2021/10/21 06:22:11;;;;;;;17.88;10.75;;;;;;;11.55;78.60;99783.38;6271766;28;20064;-76
2021/10/21 06:25:13;;;;;;;18.27;11.27;;;;;;;11.59;78.33;99783.09;6272782;28;20491;-75
2021/10/21 06:28:14;;;;;;;19.10;10.27;;;;;;;11.68;77.81;99787.66;6272620;28;20044;-76
2021/10/21 06:31:15;;;;;;;20.10;10.93;;;;;;;11.79;77.17;99783.47;6276441;28;20503;-77
2021/10/21 06:34:17;;;;;;;17.63;10.80;;;;;;;11.78;77.42;99777.41;6278319;28;20036;-76
2021/10/21 06:37:17;;;;;;;17.98;10.90;;;;;;;11.84;76.93;99781.34;6322758;28;20089;-76
2021/10/21 06:40:18;;;;;;;17.75;9.93;;;;;;;11.83;76.66;99771.84;6279615;28;20040;-76
2021/10/21 06:43:19;;;;;;;17.98;10.43;;;;;;;11.78;77.16;99776.56;6295023;28;20441;-76
2021/10/21 06:46:20;;;;;;;18.67;10.55;;;;;;;11.88;76.90;99772.34;6295476;28;20139;-76
2021/10/21 06:49:21;;;;;;;16.17;10.52;;;;;;;11.82;77.31;99768.41;6296767;28;20487;-76
2021/10/21 06:52:21;;;;;;;16.92;10.45;;;;;;;11.83;77.42;99761.38;6278811;28;20052;-76
2021/10/21 06:55:23;;;;;;;20.67;10.38;;;;;;;12.09;75.78;99767.41;6295398;28;20425;-76
2021/10/21 06:58:23;;;;;;;18.48;10.02;;;;;;;12.23;75.16;99767.25;6295331;28;20411;-76
2021/10/21 07:01:24;;;;;;;18.60;10.05;;;;;;;12.53;73.92;99770.34;6295336;28;20076;-76
2021/10/21 07:04:25;;;;;;;16.08;10.00;;;;;;;12.85;72.86;99757.50;6296353;28;20125;-76
2021/10/21 07:07:26;;;;;;;16.48;10.57;;;;;;;12.87;72.54;99760.84;6295166;28;20128;-75
2021/10/21 07:10:27;;;;;;;17.88;9.52;;;;;;;12.99;71.23;99752.06;6294987;28;20498;-76
2021/10/21 07:13:28;;;;;;;14.35;8.88;;;;;;;13.21;70.67;99753.84;6295040;28;20037;-76
2021/10/21 07:16:29;;;;;;;19.23;9.60;;;;;;;13.32;70.25;99753.03;6296183;28;20048;-76
2021/10/21 07:19:29;;;;;;;14.95;9.25;;;;;;;13.29;69.59;99748.88;6295810;28;20806;-75
2021/10/21 07:22:33;;;;;;;18.58;9.65;;;;;;;13.40;69.52;99748.03;6296195;28;20563;-76
2021/10/21 07:25:35;;;;;;;16.88;8.50;;;;;;;13.47;69.00;99738.75;6294754;28;20109;-76
2021/10/21 07:28:36;;;;;;;16.92;8.98;;;;;;;13.55;68.63;99738.19;6295989;28;20041;-76
2021/10/21 07:31:37;;;;;;;15.32;7.75;;;;;;;13.55;68.67;99737.31;6294680;28;20497;-76
2021/10/21 07:34:40;;;;;;;13.73;8.80;;;;;;;13.79;67.64;99739.81;6294623;28;20092;-76
2021/10/21 07:37:41;;;;;;;14.45;8.45;;;;;;;14.00;66.72;99743.34;6294509;28;20487;-77
2021/10/21 07:40:42;;;;;;;14.80;7.90;;;;;;;14.02;66.40;99730.94;6294622;28;20108;-79
2021/10/21 07:43:43;;;;;;;15.48;7.40;;;;;;;14.18;66.13;99740.19;6294791;28;20478;-78
2021/10/21 07:46:46;;;;;;;14.52;8.13;;;;;;;14.39;64.75;99737.59;6295890;28;20052;-78
2021/10/21 07:49:47;;;;;;;15.35;8.20;;;;;;;14.83;63.41;99723.44;6296314;28;20456;-78
2021/10/21 07:52:48;;;;;;;14.80;8.75;;;;;;;15.05;62.65;99726.88;6277791;28;20044;-78
2021/10/21 07:55:48;;;;;;;11.35;6.78;;;;;;;14.81;62.48;99722.75;6295816;28;20047;-77
2021/10/21 07:58:49;;;;;;;15.57;7.72;;;;;;;15.24;61.35;99719.09;6295661;28;20072;-78
2021/10/21 08:01:50;;;;;;;11.40;6.10;;;;;;;15.18;60.94;99721.44;6278042;28;20037;-78
2021/10/21 08:04:51;;;;;;;18.80;7.97;;;;;;;15.37;60.27;99716.25;6294333;28;20076;-77
2021/10/21 08:07:52;;;;;;;12.18;6.35;;;;;;;15.54;59.20;99720.03;6295661;28;20075;-78
2021/10/21 08:10:53;;;;;;;11.63;7.07;;;;;;;15.60;58.81;99713.41;6295589;28;20072;-77
2021/10/21 08:13:54;;;;;;;12.18;6.43;;;;;;;15.37;58.94;99703.09;6277701;28;20040;-77
2021/10/21 08:16:57;;;;;;;12.45;6.90;;;;;;;15.57;57.98;99704.00;6294242;28;20513;-78
2021/10/21 08:19:58;;;;;;;12.23;6.85;;;;;;;15.80;57.57;99706.44;6294349;28;20040;-78
2021/10/21 08:23:01;;;;;;;16.77;6.45;;;;;;;15.80;57.10;99701.19;6295434;28;20044;-78
2021/10/21 08:26:01;;;;;;;16.85;6.22;;;;;;;15.84;56.74;99698.13;6295153;28;20725;-78
2021/10/21 08:29:02;;;;;;;12.50;6.43;;;;;;;16.18;55.92;99696.91;6294294;28;20036;-78
2021/10/21 08:32:06;;;;;;;18.65;7.00;;;;;;;16.23;55.83;99699.97;6300171;28;20042;-78
2021/10/21 08:35:07;;;;;;;10.18;6.43;;;;;;;16.60;54.40;99688.72;6282674;28;20049;-77
2021/10/21 08:38:08;;;;;;;15.32;6.80;;;;;;;16.83;54.12;99692.72;6299995;28;20551;-78
2021/10/21 08:41:13;;;;;;;18.45;6.53;;;;;;;16.91;53.23;99687.56;6300044;28;20044;-78
2021/10/21 08:44:14;;;;;;;15.57;7.05;;;;;;;17.36;52.33;99686.03;6298717;28;20043;-74
2021/10/21 08:47:19;;;;;;;12.55;6.53;;;;;;;17.53;52.88;99681.75;6299353;28;20048;-73
2021/10/21 08:50:20;;;;;;;14.70;6.50;;;;;;;17.59;51.17;99688.25;6299590;28;20842;-74
2021/10/21 08:53:20;;;;;;;19.55;6.65;;;;;;;17.66;50.90;99676.13;6298441;28;20048;-73
2021/10/21 08:56:22;;;;;;;11.10;5.82;;;;;;;17.80;50.56;99675.63;6299469;28;20052;-73
2021/10/21 08:59:23;;;;;;;10.85;5.85;;;;;;;18.01;49.48;99658.69;6298266;28;20048;-74
2021/10/21 09:02:35;;;;;;;11.40;5.63;;;;;;;17.90;49.20;99657.13;6298281;28;20048;-74
2021/10/21 09:05:47;;;;;;;12.68;5.18;;;;;;;18.19;48.38;99645.50;6283042;28;20411;-73
2021/10/21 09:08:47;;;;;;;11.43;4.78;;;;;;;18.57;47.33;99643.44;6298089;28;20040;-74
2021/10/21 09:12:04;;;;;;;9.57;5.00;;;;;;;18.98;46.10;99639.25;6297864;28;20063;-74
2021/10/21 09:15:10;;;;;;;15.13;5.03;;;;;;;19.06;45.79;99639.28;6299004;28;20479;-73
2021/10/21 09:18:14;;;;;;;9.45;4.47;;;;;;;19.06;44.83;99638.47;6297782;28;20040;-74
2021/10/21 09:21:29;;;;;;;11.48;3.85;;;;;;;18.93;44.50;99636.25;6298953;28;20086;-74
2021/10/21 09:24:32;;;;;;;42.53;3.97;;;;;;;19.06;43.97;99639.28;6297850;28;20483;-73
2021/10/21 09:27:36;;;;;;;12.57;3.95;;;;;;;19.16;43.27;99635.72;6297538;28;20041;-73
2021/10/21 09:30:36;;;;;;;19.92;5.90;;;;;;;19.66;42.43;99641.00;6298662;28;20498;-73
2021/10/21 09:33:56;;;;;;;36.90;4.38;;;;;;;20.03;41.22;99642.38;6281084;28;20044;-73
2021/10/21 09:37:07;;;;;;;27.30;4.07;;;;;;;19.89;40.86;99637.72;6297338;28;20037;-73
2021/10/21 09:40:34;;;;;;;24.60;3.90;;;;;;;20.21;40.63;99628.16;6297036;28;20087;-74
2021/10/21 09:43:36;;;;;;;21.95;4.07;;;;;;;19.66;40.24;99622.47;6295825;28;20426;-73
2021/10/21 09:46:40;;;;;;;11.88;3.25;;;;;;;19.50;40.28;99630.38;6296875;28;20048;-74
2021/10/21 09:49:44;;;;;;;18.17;4.28;;;;;;;19.62;40.63;99630.88;6298319;28;20047;-74
2021/10/21 09:53:07;;;;;;;18.45;4.18;;;;;;;19.52;40.45;99629.22;6298226;28;20048;-74
2021/10/21 09:56:09;;;;;;;11.88;3.50;;;;;;;19.75;40.03;99617.19;6296878;28;20051;-73
2021/10/21 09:59:09;;;;;;;21.05;4.07;;;;;;;19.97;39.13;99616.56;6296831;28;20045;-74
2021/10/21 10:02:20;;;;;;;17.10;3.47;;;;;;;19.99;39.26;99611.91;6297964;28;20516;-74
2021/10/21 10:05:21;;;;;;;17.60;3.63;;;;;;;19.77;39.68;99604.63;6298314;28;20528;-74
2021/10/21 10:08:23;;;;;;;13.38;3.58;;;;;;;19.59;40.19;99602.94;6279988;28;20045;-74
2021/10/21 10:11:24;;;;;;;11.60;3.10;;;;;;;19.51;39.90;99605.56;6296659;28;20043;-74
2021/10/21 10:14:26;;;;;;;17.25;3.33;;;;;;;19.61;40.47;99598.31;6279874;28;20048;-74
2021/10/21 10:17:29;;;;;;;15.95;2.85;;;;;;;19.42;40.34;99606.53;6297582;28;20049;-73
2021/10/21 10:20:30;;;;;;;8.57;3.08;;;;;;;19.52;40.47;99599.28;6297416;28;20047;-74
2021/10/21 10:23:33;;;;;;;12.30;3.43;;;;;;;19.46;40.54;99592.81;6296361;28;20119;-74
2021/10/21 10:26:54;;;;;;;9.18;3.95;;;;;;;19.59;39.79;99580.94;6297377;28;20045;-78
2021/10/21 10:29:57;;;;;;;6.40;3.13;;;;;;;19.51;39.63;99579.91;6296213;28;20115;-78
2021/10/21 10:32:58;;;;;;;14.18;4.80;;;;;;;19.45;39.99;99563.88;6296074;28;20280;-77
2021/10/21 10:36:25;;;;;;;20.30;3.90;;;;;;;19.41;39.36;99576.59;6279365;28;20072;-78
2021/10/21 10:39:53;;;;;;;18.15;3.05;;;;;;;19.41;39.93;99571.31;6297173;28;20071;-78
2021/10/21 10:42:54;;;;;;;16.15;3.53;;;;;;;19.58;39.80;99550.16;6297028;28;20549;-78
2021/10/21 10:45:55;;;;;;;14.68;2.92;;;;;;;19.63;39.48;99539.94;6295907;28;20037;-78
2021/10/21 10:48:56;;;;;;;8.48;3.45;;;;;;;19.89;39.52;99545.91;6262585;28;20052;-78
2021/10/21 10:52:00;;;;;;;10.50;3.22;;;;;;;19.89;39.13;99545.06;6261865;28;20074;-78
2021/10/21 10:55:03;;;;;;;16.73;3.33;;;;;;;20.11;38.84;99533.78;6296502;28;20045;-77
2021/10/21 10:58:03;;;;;;;12.55;3.72;;;;;;;20.16;38.78;99533.31;6279080;28;20067;-78
2021/10/21 11:01:04;;;;;;;9.25;3.40;;;;;;;20.08;38.75;99525.38;6295438;28;20483;-77
2021/10/21 11:04:05;;;;;;;14.00;3.38;;;;;;;20.25;38.52;99528.81;6278832;28;20055;-79
2021/10/21 11:07:07;;;;;;;15.07;3.83;;;;;;;20.75;38.38;99525.03;6278694;28;20376;-78
2021/10/21 11:10:18;;;;;;;13.68;3.55;;;;;;;20.63;38.30;99529.06;6295317;28;20544;-78
2021/10/21 11:13:34;;;;;;;8.82;3.60;;;;;;;20.22;38.69;99529.16;6296449;28;20041;-78
2021/10/21 11:16:55;;;;;;;20.33;3.25;;;;;;;20.24;39.02;99528.00;6296070;28;20070;-77
2021/10/21 11:19:56;;;;;;;58.55;5.43;;;;;;;20.34;38.37;99514.53;6278529;28;20067;-77
2021/10/21 11:23:27;;;;;;;22.67;3.22;;;;;;;20.34;38.71;99519.84;6295409;28;20079;-78
2021/10/21 11:26:29;;;;;;;18.05;3.63;;;;;;;20.30;38.70;99510.59;6296280;28;20048;-78
2021/10/21 11:29:30;;;;;;;21.02;2.97;;;;;;;20.12;38.29;99513.47;6296699;28;20041;-78
2021/10/21 11:32:33;;;;;;;8.85;3.10;;;;;;;20.10;38.31;99508.31;6296100;28;20087;-78
2021/10/21 11:35:37;;;;;;;8.40;3.10;;;;;;;20.12;38.76;99514.28;6296115;28;20040;-78
2021/10/21 11:38:37;;;;;;;17.30;2.88;;;;;;;20.10;38.50;99504.84;6295931;28;20438;-78
2021/10/21 11:41:38;;;;;;;5.68;2.70;;;;;;;20.08;38.77;99501.56;6294738;28;20140;-78
2021/10/21 11:44:39;;;;;;;15.00;2.95;;;;;;;20.17;38.94;99495.22;6294790;28;20509;-78
2021/10/21 11:47:40;;;;;;;8.13;3.35;;;;;;;20.03;39.05;99490.63;6295303;28;20473;-78
2021/10/21 11:50:43;;;;;;;7.45;3.22;;;;;;;20.00;39.21;99494.44;6295839;28;20048;-78
2021/10/21 11:53:48;;;;;;;13.88;3.00;;;;;;;19.89;39.65;99503.56;6295703;28;20048;-78
2021/10/21 11:56:56;;;;;;;12.20;2.78;;;;;;;19.72;39.73;99504.56;6295774;28;20083;-79
2021/10/21 11:59:56;;;;;;;16.58;3.20;;;;;;;19.82;39.59;99484.03;6294618;28;20406;-78
2021/10/21 12:03:00;;;;;;;16.05;3.38;;;;;;;19.87;39.13;99489.66;6277895;28;20037;-78
2021/10/21 12:06:01;;;;;;;12.52;3.25;;;;;;;19.90;39.15;99483.19;6299470;28;20068;-78
2021/10/21 12:09:05;;;;;;;5.35;3.20;;;;;;;19.86;39.18;99479.22;6299338;28;20116;-78
2021/10/21 12:12:08;;;;;;;4.32;2.92;;;;;;;19.88;39.23;99477.25;6299678;28;20047;-78
2021/10/21 12:15:09;;;;;;;16.38;3.30;;;;;;;20.05;39.21;99486.81;6299349;28;20075;-74
2021/10/21 12:18:10;;;;;;;8.38;3.30;;;;;;;19.87;38.97;99487.00;6300452;28;20045;-73
2021/10/21 12:21:12;;;;;;;11.15;3.28;;;;;;;19.83;38.89;99491.00;6282889;28;20049;-73
2021/10/21 12:24:25;;;;;;;7.72;3.80;;;;;;;19.81;39.12;99494.78;6300386;28;20052;-74
2021/10/21 12:27:26;;;;;;;12.18;4.13;;;;;;;19.92;38.98;99482.03;6300018;28;20430;-74
2021/10/21 12:30:27;;;;;;;7.47;2.90;;;;;;;19.73;39.61;99483.22;6300256;28;20044;-73
2021/10/21 12:33:28;;;;;;;5.00;3.00;;;;;;;19.69;40.05;99479.22;6300050;28;20119;-74
2021/10/21 12:36:31;;;;;;;10.27;3.42;;;;;;;19.67;39.98;99475.09;6300094;28;20456;-74
2021/10/21 12:39:33;;;;;;;19.77;3.28;;;;;;;19.85;40.16;99470.47;6298751;28;20048;-74
2021/10/21 12:42:34;;;;;;;9.35;3.28;;;;;;;19.66;40.68;99466.34;6298636;28;20036;-74
2021/10/21 12:45:35;;;;;;;6.82;3.47;;;;;;;19.72;40.16;99472.78;6298907;28;20060;-75
2021/10/21 12:48:36;;;;;;;13.27;3.05;;;;;;;19.53;40.59;99469.47;6298054;28;20055;-74
2021/10/21 12:51:37;;;;;;;10.73;3.10;;;;;;;19.60;40.46;99460.84;6281907;28;20048;-74
2021/10/21 12:54:39;;;;;;;25.60;3.87;;;;;;;19.66;40.35;99466.34;6281704;28;20052;-74
2021/10/21 12:57:48;;;;;;;10.68;3.58;;;;;;;19.59;40.65;99457.38;6298200;28;20047;-74
2021/10/21 13:00:58;;;;;;;6.70;3.00;;;;;;;19.63;40.72;99461.34;6298193;28;20541;-74
2021/10/21 13:03:58;;;;;;;7.57;3.42;;;;;;;19.79;40.69;99459.72;6299412;28;20067;-74
2021/10/21 13:06:59;;;;;;;7.90;4.07;;;;;;;19.68;40.91;99451.13;6299103;28;20048;-73
2021/10/21 13:10:00;;;;;;;6.68;3.30;;;;;;;19.70;41.23;99448.28;6298181;28;20091;-79
2021/10/21 13:13:01;;;;;;;6.63;3.20;;;;;;;19.63;41.90;99455.25;6299152;28;20154;-78
2021/10/21 13:16:04;;;;;;;5.43;3.20;;;;;;;19.52;41.87;99451.13;6298852;28;20051;-78
2021/10/21 13:19:08;;;;;;;13.40;3.40;;;;;;;19.63;42.07;99447.31;6299376;28;20110;-78
2021/10/21 13:22:08;;;;;;;14.18;3.63;;;;;;;19.64;41.79;99447.16;6298124;28;20475;-78
2021/10/21 13:25:09;;;;;;;10.95;3.00;;;;;;;19.65;42.36;99458.56;6281369;28;20044;-78
2021/10/21 13:28:12;;;;;;;11.50;3.33;;;;;;;19.59;42.49;99451.28;6298749;28;20115;-78
2021/10/21 13:31:13;;;;;;;13.15;3.63;;;;;;;19.63;42.74;99442.00;6264748;28;20767;-78
2021/10/21 13:34:13;;;;;;;9.75;3.15;;;;;;;19.48;43.07;99449.81;6297745;28;20048;-78
2021/10/21 13:37:14;;;;;;;11.02;3.45;;;;;;;19.59;43.09;99459.22;6264458;28;20043;-78
2021/10/21 13:40:15;;;;;;;10.95;3.95;;;;;;;19.63;43.40;99447.31;6297467;28;20065;-78
2021/10/21 13:43:16;;;;;;;9.35;3.40;;;;;;;19.56;43.42;99454.25;6297509;28;20036;-78
2021/10/21 13:46:17;;;;;;;14.57;4.00;;;;;;;19.39;43.83;99453.44;6280541;28;20041;-78
2021/10/21 13:49:21;;;;;;;8.48;4.50;;;;;;;19.43;43.87;99460.03;6297221;28;20047;-78
2021/10/21 13:52:22;;;;;;;17.75;4.22;;;;;;;19.31;44.29;99452.44;6298554;28;20041;-78
2021/10/21 13:55:23;;;;;;;13.45;4.03;;;;;;;19.36;44.51;99451.13;6297159;28;20044;-79
2021/10/21 13:58:25;;;;;;;7.45;3.40;;;;;;;19.36;44.75;99456.41;6297039;28;20083;-79
2021/10/21 14:01:26;;;;;;;7.18;3.80;;;;;;;19.36;44.77;99462.53;6298225;28;20048;-78
2021/10/21 14:04:27;;;;;;;9.23;3.90;;;;;;;19.29;45.24;99456.22;6296956;28;20042;-78
2021/10/21 14:07:28;;;;;;;11.88;4.00;;;;;;;19.21;45.74;99465.00;6297879;28;20293;-78
2021/10/21 14:10:29;;;;;;;15.32;5.30;;;;;;;19.24;45.33;99466.47;6296728;28;20033;-78